Time;durP1;ratioP1;P1;durP2;ratioP2;P2;SDS_P1;SDS_P2;PMS_P1;PMS_P2;Temp;Humidity;BMP_temperature;BMP_pressure;BME280_temperature;BME280_humidity;BME280_pressure;Samples;Min_cycle;Max_cycle;Signal;HPM_P1;HPM_P2
2022/09/10 00:00:18;;;;;;;4.10;1.90;;;;;;;15.21;100.00;100254.75;694346;28;1122;-68
2022/09/10 00:00:40;;;;;;;4.72;1.90;;;;;;;15.13;100.00;100248.88;693420;28;4290;-68
2022/09/10 00:01:00;;;;;;;3.70;1.90;;;;;;;15.23;100.00;100254.72;694497;28;1325;-67
2022/09/10 00:01:24;;;;;;;4.23;1.70;;;;;;;15.24;100.00;100259.06;695828;28;1127;-66
2022/09/10 00:01:45;;;;;;;4.18;1.70;;;;;;;15.26;100.00;100254.66;695808;28;1433;-67
2022/09/10 00:02:05;;;;;;;3.85;1.60;;;;;;;15.40;100.00;100254.22;696156;28;1321;-67
2022/09/10 00:02:25;;;;;;;4.63;1.70;;;;;;;15.44;100.00;100254.06;696739;28;1156;-68
2022/09/10 00:02:48;;;;;;;4.72;1.80;;;;;;;15.38;100.00;100264.81;697352;28;1435;-67
2022/09/10 00:03:09;;;;;;;3.47;1.70;;;;;;;15.41;100.00;100258.56;697656;28;1753;-67
2022/09/10 00:03:30;;;;;;;3.78;1.70;;;;;;;15.36;100.00;100260.50;695620;28;1026;-68
2022/09/10 00:03:53;;;;;;;4.15;1.65;;;;;;;15.30;100.00;100257.13;697064;28;4278;-68
2022/09/10 00:04:15;;;;;;;3.85;1.80;;;;;;;15.25;100.00;100258.19;697170;28;1241;-68
2022/09/10 00:04:35;;;;;;;3.67;1.77;;;;;;;15.22;100.00;100261.75;697214;28;1241;-68
2022/09/10 00:04:56;;;;;;;3.85;1.60;;;;;;;15.21;100.00;100260.03;698212;28;1304;-68
2022/09/10 00:05:17;;;;;;;4.85;1.67;;;;;;;15.20;100.00;100255.66;696971;28;1273;-68
2022/09/10 00:05:43;;;;;;;5.07;1.60;;;;;;;15.15;100.00;100260.22;696659;28;1270;-68
2022/09/10 00:06:04;;;;;;;4.90;1.70;;;;;;;15.11;100.00;100258.59;694703;28;1293;-68
2022/09/10 00:06:26;;;;;;;4.07;1.60;;;;;;;15.11;100.00;100263.88;696216;28;1092;-68
2022/09/10 00:06:47;;;;;;;3.72;1.50;;;;;;;15.15;100.00;100261.09;694955;28;4449;-70
2022/09/10 00:07:07;;;;;;;3.83;1.50;;;;;;;15.20;100.00;100260.09;694081;28;1444;-67
2022/09/10 00:07:28;;;;;;;3.70;1.50;;;;;;;15.24;100.00;100259.06;694566;28;1325;-68
2022/09/10 00:07:48;;;;;;;4.90;1.67;;;;;;;15.30;100.00;100259.75;694653;28;1484;-67
2022/09/10 00:08:09;;;;;;;4.60;1.50;;;;;;;15.44;100.00;100263.75;696243;28;1567;-67
2022/09/10 00:08:30;;;;;;;2.78;1.40;;;;;;;15.42;100.00;100260.28;693531;28;1630;-68
2022/09/10 00:08:51;;;;;;;3.55;1.50;;;;;;;15.42;100.00;100260.28;691276;28;1186;-68
2022/09/10 00:09:12;;;;;;;5.65;1.63;;;;;;;15.39;100.00;100270.91;690274;28;1619;-67
2022/09/10 00:09:33;;;;;;;3.92;1.42;;;;;;;15.38;100.00;100256.91;691105;28;1219;-68
2022/09/10 00:09:53;;;;;;;4.53;1.60;;;;;;;15.45;100.00;100265.44;693384;28;4275;-68
2022/09/10 00:10:13;;;;;;;4.00;1.50;;;;;;;15.45;100.00;100258.44;690498;28;1536;-69
2022/09/10 00:10:42;;;;;;;2.75;1.40;;;;;;;15.37;100.00;100264.81;693209;28;1131;-68
2022/09/10 00:11:05;;;;;;;3.83;1.50;;;;;;;15.29;100.00;100268.56;694257;28;1428;-69
2022/09/10 00:11:30;;;;;;;3.55;1.40;;;;;;;15.21;100.00;100267.94;694778;28;1202;-68
2022/09/10 00:11:50;;;;;;;5.05;1.42;;;;;;;15.13;100.00;100265.53;695387;28;1325;-68
2022/09/10 00:12:11;;;;;;;4.22;1.50;;;;;;;15.23;100.00;100265.25;694568;28;1226;-68
2022/09/10 00:12:31;;;;;;;3.33;1.40;;;;;;;15.27;100.00;100272.16;696458;28;1308;-68
2022/09/10 00:12:51;;;;;;;3.38;1.42;;;;;;;15.39;100.00;100265.66;696419;28;4375;-68
2022/09/10 00:13:15;;;;;;;4.27;1.30;;;;;;;15.40;100.00;100267.38;696180;28;1165;-68
2022/09/10 00:13:38;;;;;;;3.80;1.42;;;;;;;15.33;100.00;100266.72;696644;28;1247;-67
2022/09/10 00:14:00;;;;;;;3.92;1.40;;;;;;;15.27;100.00;100269.50;693210;28;1172;-68
2022/09/10 00:14:22;;;;;;;3.78;1.33;;;;;;;15.32;100.00;100271.09;690215;28;1250;-67
2022/09/10 00:14:43;;;;;;;3.70;1.30;;;;;;;15.29;100.00;100276.47;690702;28;1298;-68
2022/09/10 00:15:04;;;;;;;3.97;1.20;;;;;;;15.31;100.00;100266.75;691467;28;1342;-68
2022/09/10 00:15:25;;;;;;;3.33;1.20;;;;;;;15.35;100.00;100264.88;691426;28;1137;-69
2022/09/10 00:15:48;;;;;;;3.60;1.30;;;;;;;15.41;100.00;100275.22;690132;28;4346;-68
2022/09/10 00:16:11;;;;;;;4.10;1.33;;;;;;;15.53;100.00;100273.13;691424;28;1515;-68
2022/09/10 00:16:32;;;;;;;4.75;1.10;;;;;;;15.45;100.00;100270.72;693630;28;4153;-68
2022/09/10 00:16:53;;;;;;;7.23;1.27;;;;;;;15.39;100.00;100266.50;694637;28;1689;-68
2022/09/10 00:17:14;;;;;;;3.67;1.20;;;;;;;15.35;100.00;100274.56;693887;28;1214;-68
2022/09/10 00:17:35;;;;;;;3.63;1.20;;;;;;;15.35;100.00;100270.13;694861;28;1419;-68
2022/09/10 00:17:56;;;;;;;2.60;1.20;;;;;;;15.31;100.00;100268.50;696146;28;1169;-69
2022/09/10 00:18:18;;;;;;;2.58;1.10;;;;;;;15.21;100.00;100277.63;695700;28;1158;-68
2022/09/10 00:18:40;;;;;;;2.22;1.10;;;;;;;15.14;100.00;100271.66;695420;28;4381;-69
2022/09/10 00:19:01;;;;;;;3.03;1.10;;;;;;;15.10;100.00;100270.03;695471;28;1417;-69
2022/09/10 00:19:21;;;;;;;4.55;1.33;;;;;;;15.09;100.00;100271.81;698470;28;1134;-69
2022/09/10 00:19:42;;;;;;;5.63;1.30;;;;;;;15.08;100.00;100275.34;696341;28;1285;-69
2022/09/10 00:20:03;;;;;;;4.00;1.20;;;;;;;15.05;100.00;100270.19;696569;28;1430;-68
2022/09/10 00:20:24;;;;;;;2.92;1.20;;;;;;;15.04;100.00;100272.84;699121;28;1117;-69
2022/09/10 00:20:52;;;;;;;2.80;1.20;;;;;;;15.09;100.00;100269.19;698828;28;1282;-68
2022/09/10 00:21:16;;;;;;;3.20;1.20;;;;;;;15.07;100.00;100267.50;698437;28;1006;-68
2022/09/10 00:21:37;;;;;;;3.58;1.23;;;;;;;15.21;100.00;100262.66;696227;28;4266;-68
2022/09/10 00:21:58;;;;;;;4.90;1.40;;;;;;;15.35;100.00;100266.66;699779;28;1268;-67
2022/09/10 00:22:19;;;;;;;3.30;1.27;;;;;;;15.29;100.00;100268.56;695880;28;1158;-68
2022/09/10 00:22:39;;;;;;;2.73;1.20;;;;;;;15.24;100.00;100270.47;696417;28;1272;-68
2022/09/10 00:23:01;;;;;;;3.33;1.20;;;;;;;15.22;100.00;100272.28;696505;28;1336;-68
2022/09/10 00:23:24;;;;;;;3.60;1.30;;;;;;;15.15;100.00;100274.25;696267;28;1205;-68
2022/09/10 00:23:46;;;;;;;4.03;1.30;;;;;;;15.15;100.00;100268.13;692106;28;1349;-69
2022/09/10 00:24:07;;;;;;;3.55;1.20;;;;;;;15.11;100.00;100266.50;692177;28;1239;-68
2022/09/10 00:24:27;;;;;;;3.47;1.00;;;;;;;15.15;100.00;100270.75;693583;28;1433;-68
2022/09/10 00:24:48;;;;;;;3.10;1.07;;;;;;;15.16;100.00;100264.59;694534;28;4315;-69
2022/09/10 00:25:08;;;;;;;3.20;1.20;;;;;;;15.13;100.00;100270.81;695528;28;1448;-68
2022/09/10 00:25:31;;;;;;;4.37;1.20;;;;;;;15.10;100.00;100276.16;695460;28;1467;-69
2022/09/10 00:25:53;;;;;;;3.63;1.20;;;;;;;15.11;100.00;100269.13;700247;28;1244;-68
2022/09/10 00:26:23;;;;;;;3.42;1.15;;;;;;;15.19;100.00;100269.75;699211;28;1054;-68
2022/09/10 00:26:44;;;;;;;2.92;1.10;;;;;;;15.26;100.00;100267.81;696978;28;1376;-68
2022/09/10 00:27:05;;;;;;;2.90;1.10;;;;;;;15.22;100.00;100272.28;694719;28;1231;-68
2022/09/10 00:27:26;;;;;;;2.73;1.20;;;;;;;15.13;100.00;100264.66;694035;28;1261;-68
2022/09/10 00:27:46;;;;;;;3.53;1.20;;;;;;;15.02;100.00;100266.75;691439;28;4270;-68
2022/09/10 00:28:07;;;;;;;2.43;1.00;;;;;;;15.00;100.00;100265.97;692539;28;1301;-68
2022/09/10 00:28:28;;;;;;;3.08;1.20;;;;;;;14.98;100.00;100263.34;691562;28;1431;-68
2022/09/10 00:28:53;;;;;;;2.57;1.10;;;;;;;15.15;100.00;100266.34;691151;28;1448;-69
2022/09/10 00:29:16;;;;;;;3.13;1.00;;;;;;;15.27;100.00;100278.28;691292;28;1112;-68
2022/09/10 00:29:37;;;;;;;3.95;1.20;;;;;;;15.27;100.00;100272.16;690641;28;1139;-68
2022/09/10 00:29:57;;;;;;;4.65;1.10;;;;;;;15.31;100.00;100271.13;691453;28;1202;-68
2022/09/10 00:30:18;;;;;;;3.93;1.00;;;;;;;15.36;100.00;100263.97;689015;28;1298;-68
2022/09/10 00:30:40;;;;;;;3.33;1.05;;;;;;;15.27;100.00;100273.03;690190;28;4336;-68
2022/09/10 00:31:02;;;;;;;3.65;1.30;;;;;;;15.19;100.00;100264.50;690831;28;1227;-68
2022/09/10 00:31:23;;;;;;;4.70;1.45;;;;;;;15.18;100.00;100265.41;692218;28;1365;-68
2022/09/10 00:31:43;;;;;;;3.80;1.13;;;;;;;15.14;100.00;100269.03;692458;28;1344;-68
2022/09/10 00:32:04;;;;;;;2.47;1.08;;;;;;;15.10;100.00;100267.41;693040;28;1555;-68
2022/09/10 00:32:24;;;;;;;2.50;1.00;;;;;;;15.09;100.00;100263.03;692848;28;1074;-68
2022/09/10 00:32:51;;;;;;;2.57;1.00;;;;;;;15.06;100.00;100266.63;694359;28;1353;-68
2022/09/10 00:33:14;;;;;;;2.50;0.95;;;;;;;15.14;100.00;100266.41;695666;28;1075;-69
2022/09/10 00:33:34;;;;;;;3.42;1.00;;;;;;;15.23;100.00;100268.75;695810;28;1104;-69
2022/09/10 00:33:56;;;;;;;4.37;1.20;;;;;;;15.19;100.00;100269.75;693573;28;4305;-68
2022/09/10 00:34:16;;;;;;;3.38;1.15;;;;;;;15.17;100.00;100270.72;694433;28;1239;-68
2022/09/10 00:34:37;;;;;;;3.10;1.17;;;;;;;15.23;100.00;100263.50;697402;28;1247;-69
2022/09/10 00:35:00;;;;;;;3.55;1.17;;;;;;;15.25;100.00;100268.72;693769;28;1475;-69
2022/09/10 00:35:20;;;;;;;3.40;1.00;;;;;;;15.17;100.00;100266.28;691865;28;1257;-68
2022/09/10 00:35:42;;;;;;;4.30;1.37;;;;;;;15.09;100.00;100263.91;693552;28;1206;-68
2022/09/10 00:36:13;;;;;;;4.97;1.35;;;;;;;15.05;100.00;100266.66;695586;28;1092;-68
2022/09/10 00:36:39;;;;;;;2.83;1.00;;;;;;;14.98;100.00;100271.25;694782;28;1087;-68
2022/09/10 00:36:59;;;;;;;4.00;1.08;;;;;;;14.97;100.00;100270.38;691846;28;5019;-68
2022/09/10 00:37:20;;;;;;;4.38;1.15;;;;;;;14.93;100.00;100266.13;692172;28;1218;-69
2022/09/10 00:37:41;;;;;;;3.58;1.17;;;;;;;14.88;100.00;100265.38;690434;28;1730;-68
2022/09/10 00:38:02;;;;;;;3.80;1.27;;;;;;;14.85;100.00;100268.09;691514;28;1139;-68
2022/09/10 00:38:23;;;;;;;2.35;1.10;;;;;;;14.83;100.00;100267.31;686443;28;1404;-68
2022/09/10 00:38:44;;;;;;;3.97;1.10;;;;;;;14.81;100.00;100270.00;687834;28;5045;-68
2022/09/10 00:39:07;;;;;;;3.17;1.10;;;;;;;14.80;100.00;100267.38;686806;28;1318;-69
2022/09/10 00:39:27;;;;;;;4.07;1.20;;;;;;;14.76;100.00;100271.00;687357;28;1528;-68
2022/09/10 00:39:48;;;;;;;2.97;1.20;;;;;;;14.71;100.00;100270.28;689731;28;4725;-68
2022/09/10 00:40:10;;;;;;;3.37;1.20;;;;;;;14.68;100.00;100263.34;687054;28;1519;-68
2022/09/10 00:40:31;;;;;;;4.88;1.10;;;;;;;14.66;100.00;100272.16;689039;28;1436;-68
2022/09/10 00:40:51;;;;;;;3.47;1.27;;;;;;;14.64;100.00;100265.19;691169;28;1536;-68
2022/09/10 00:41:14;;;;;;;4.27;1.37;;;;;;;14.62;100.00;100266.09;694686;28;1394;-68
2022/09/10 00:41:36;;;;;;;3.63;1.20;;;;;;;14.60;100.00;100270.53;691143;28;1349;-68
2022/09/10 00:41:57;;;;;;;4.55;1.25;;;;;;;14.61;100.00;100272.28;691185;28;1076;-69
2022/09/10 00:42:17;;;;;;;3.60;1.20;;;;;;;14.58;100.00;100267.97;693033;28;1220;-68
2022/09/10 00:42:42;;;;;;;4.07;1.20;;;;;;;14.57;100.00;100268.00;693539;28;4295;-68
2022/09/10 00:43:12;;;;;;;3.00;1.20;;;;;;;14.58;100.00;100270.59;697513;28;1129;-69
2022/09/10 00:43:58;;;;;;;3.88;1.10;;;;;;;14.63;100.00;100265.22;693092;28;1111;-68
2022/09/10 00:44:40;;;;;;;2.55;1.10;;;;;;;14.70;100.00;100265.91;692516;28;1075;-68
2022/09/10 00:45:03;;;;;;;3.25;1.17;;;;;;;14.69;100.00;100264.19;690434;28;1150;-68
2022/09/10 00:45:26;;;;;;;4.47;1.20;;;;;;;14.73;100.00;100261.44;692333;28;1098;-68
2022/09/10 00:45:51;;;;;;;3.63;1.38;;;;;;;14.95;100.00;100263.44;688230;28;4265;-68
2022/09/10 00:46:13;;;;;;;4.70;1.40;;;;;;;14.97;100.00;100266.91;688050;28;1752;-68
2022/09/10 00:46:33;;;;;;;3.05;1.30;;;;;;;14.98;100.00;100266.84;686554;28;1323;-68
2022/09/10 00:46:55;;;;;;;3.73;1.20;;;;;;;14.95;100.00;100260.81;689551;28;1023;-68
2022/09/10 00:47:20;;;;;;;4.03;1.10;;;;;;;14.92;100.00;100263.53;688048;28;1224;-68
2022/09/10 00:47:43;;;;;;;3.55;1.20;;;;;;;14.92;100.00;100256.50;689390;28;1294;-68
2022/09/10 00:48:11;;;;;;;2.97;1.20;;;;;;;14.92;100.00;100266.16;689745;28;1388;-68
2022/09/10 00:48:31;;;;;;;3.30;1.30;;;;;;;14.91;100.00;100265.31;690508;28;2114;-69
2022/09/10 00:48:55;;;;;;;3.22;1.10;;;;;;;14.90;100.00;100268.84;690344;28;4242;-68
2022/09/10 00:49:30;;;;;;;3.50;1.20;;;;;;;14.95;100.00;100272.22;691886;28;1274;-67
2022/09/10 00:50:14;;;;;;;3.70;1.35;;;;;;;15.00;100.00;100263.31;692880;28;1119;-68
2022/09/10 00:50:39;;;;;;;4.13;1.15;;;;;;;15.01;100.00;100265.03;692556;28;1309;-68
2022/09/10 00:51:03;;;;;;;2.08;1.10;;;;;;;15.09;100.00;100261.28;690670;28;1438;-68
2022/09/10 00:51:28;;;;;;;2.03;1.00;;;;;;;15.11;100.00;100261.22;692396;28;1216;-68
2022/09/10 00:51:51;;;;;;;2.88;1.10;;;;;;;15.10;100.00;100262.97;692126;28;4278;-68
2022/09/10 00:52:12;;;;;;;2.58;1.10;;;;;;;15.18;100.00;100260.13;692757;28;1031;-68
2022/09/10 00:52:34;;;;;;;3.22;1.10;;;;;;;15.19;100.00;100261.88;692957;28;1378;-68
2022/09/10 00:52:59;;;;;;;3.58;1.20;;;;;;;15.20;100.00;100260.94;691440;28;1290;-68
2022/09/10 00:53:25;;;;;;;3.10;1.00;;;;;;;15.19;100.00;100261.88;692018;28;1111;-68
2022/09/10 00:53:46;;;;;;;2.75;1.00;;;;;;;15.19;100.00;100263.63;690328;28;1246;-68
2022/09/10 00:54:06;;;;;;;3.38;1.10;;;;;;;15.15;100.00;100263.72;689621;28;1163;-68
2022/09/10 00:54:29;;;;;;;4.00;1.10;;;;;;;15.14;100.00;100261.13;692831;28;1106;-68
2022/09/10 00:54:50;;;;;;;3.92;1.23;;;;;;;15.09;100.00;100263.91;693747;28;4417;-68
2022/09/10 00:55:11;;;;;;;4.20;1.27;;;;;;;15.07;100.00;100260.44;694240;28;1089;-68
2022/09/10 00:55:37;;;;;;;3.80;1.30;;;;;;;14.96;100.00;100258.13;693527;28;1347;-68
2022/09/10 00:56:03;;;;;;;4.82;1.30;;;;;;;14.91;100.00;100253.91;694286;28;1949;-68
2022/09/10 00:56:23;;;;;;;5.32;1.38;;;;;;;14.89;100.00;100263.63;693124;28;984;-68
2022/09/10 00:56:45;;;;;;;4.03;1.20;;;;;;;14.85;100.00;100256.72;694937;28;1249;-69
2022/09/10 00:57:12;;;;;;;3.50;1.13;;;;;;;14.79;100.00;100257.78;694984;28;1147;-68
2022/09/10 00:57:32;;;;;;;3.80;1.30;;;;;;;14.76;100.00;100261.34;695247;28;2175;-68
2022/09/10 00:57:57;;;;;;;3.55;1.25;;;;;;;14.84;100.00;100257.63;696312;28;4437;-68
2022/09/10 00:58:19;;;;;;;3.53;1.08;;;;;;;14.91;100.00;100254.78;697106;28;1083;-68
2022/09/10 00:58:41;;;;;;;4.65;1.35;;;;;;;14.89;100.00;100261.84;694798;28;1213;-68
2022/09/10 00:59:03;;;;;;;5.38;1.33;;;;;;;14.86;100.00;100254.06;693322;28;1215;-69
2022/09/10 00:59:25;;;;;;;4.43;1.27;;;;;;;14.84;100.00;100253.22;692352;28;1208;-68
2022/09/10 00:59:51;;;;;;;2.80;1.10;;;;;;;14.89;100.00;100251.31;689786;28;1387;-68
2022/09/10 01:00:14;;;;;;;3.92;1.30;;;;;;;14.88;100.00;100252.22;687669;28;1084;-70
2022/09/10 01:00:35;;;;;;;3.95;1.40;;;;;;;14.88;100.00;100254.00;687874;28;1465;-68
2022/09/10 01:01:01;;;;;;;4.00;1.20;;;;;;;14.85;100.00;100249.69;688067;28;4511;-68
2022/09/10 01:01:22;;;;;;;3.22;1.10;;;;;;;14.86;100.00;100250.56;686449;28;1313;-68
2022/09/10 01:01:42;;;;;;;3.13;1.00;;;;;;;14.85;100.00;100248.84;688788;28;1370;-69
2022/09/10 01:02:03;;;;;;;5.13;1.20;;;;;;;14.81;100.00;100250.69;690955;28;1321;-68
2022/09/10 01:02:24;;;;;;;3.80;1.20;;;;;;;14.77;100.00;100257.81;692247;28;1110;-68
2022/09/10 01:02:45;;;;;;;3.40;1.40;;;;;;;14.76;100.00;100252.56;687763;28;2111;-68
2022/09/10 01:03:10;;;;;;;3.35;1.30;;;;;;;14.75;100.00;100249.09;684880;28;997;-69
2022/09/10 01:03:31;;;;;;;2.72;1.38;;;;;;;14.70;100.00;100253.63;687706;28;1268;-68
2022/09/10 01:03:53;;;;;;;3.57;1.30;;;;;;;14.68;100.00;100251.97;686714;28;4726;-68
2022/09/10 01:04:14;;;;;;;4.03;1.55;;;;;;;14.70;100.00;100253.63;687905;28;1846;-68
2022/09/10 01:04:35;;;;;;;3.38;1.20;;;;;;;14.70;100.00;100256.25;690642;28;1098;-68
2022/09/10 01:04:57;;;;;;;2.72;1.27;;;;;;;14.71;100.00;100246.59;692770;28;1159;-68
2022/09/10 01:05:18;;;;;;;3.00;1.25;;;;;;;14.71;100.00;100257.13;689696;28;1656;-68
2022/09/10 01:05:42;;;;;;;3.33;1.10;;;;;;;14.71;100.00;100252.72;687728;28;2068;-68
2022/09/10 01:06:04;;;;;;;3.40;1.20;;;;;;;14.72;100.00;100253.59;687950;28;1278;-68
2022/09/10 01:06:24;;;;;;;4.13;1.17;;;;;;;14.72;100.00;100254.44;687945;28;1420;-68
2022/09/10 01:06:50;;;;;;;4.50;1.20;;;;;;;14.72;100.00;100253.59;688305;28;4377;-68
2022/09/10 01:07:14;;;;;;;3.38;1.33;;;;;;;14.72;100.00;100258.88;687150;28;1057;-69
2022/09/10 01:07:35;;;;;;;2.67;1.10;;;;;;;14.73;100.00;100255.31;690551;28;1349;-69
2022/09/10 01:07:56;;;;;;;3.33;1.20;;;;;;;14.74;100.00;100251.78;687504;28;1160;-69
2022/09/10 01:08:18;;;;;;;2.83;1.10;;;;;;;14.72;100.00;100254.44;686020;28;937;-69
2022/09/10 01:08:39;;;;;;;3.03;1.13;;;;;;;14.73;100.00;100250.03;687864;28;1571;-68
2022/09/10 01:09:00;;;;;;;2.80;1.15;;;;;;;14.73;100.00;100253.56;690508;28;1107;-69
2022/09/10 01:09:22;;;;;;;3.35;1.30;;;;;;;14.75;100.00;100254.34;690279;28;1415;-69
2022/09/10 01:09:43;;;;;;;3.50;1.25;;;;;;;14.77;100.00;100256.94;688408;28;4489;-68
2022/09/10 01:10:09;;;;;;;3.93;1.30;;;;;;;14.74;100.00;100249.13;691210;28;1406;-69
2022/09/10 01:10:38;;;;;;;2.83;1.20;;;;;;;14.74;100.00;100255.25;691121;28;1204;-68
2022/09/10 01:11:05;;;;;;;3.25;1.27;;;;;;;14.73;100.00;100255.31;689489;28;1116;-68
2022/09/10 01:11:55;;;;;;;3.00;1.40;;;;;;;14.70;100.00;100256.25;692024;28;1095;-68
2022/09/10 01:12:25;;;;;;;3.53;1.20;;;;;;;14.67;100.00;100250.22;689324;28;1255;-68
2022/09/10 01:13:04;;;;;;;4.70;1.55;;;;;;;14.65;100.00;100250.28;692502;28;4431;-69
2022/09/10 01:13:31;;;;;;;3.85;1.40;;;;;;;14.65;100.00;100247.66;694924;28;1121;-68
2022/09/10 01:13:51;;;;;;;4.85;1.40;;;;;;;14.67;100.00;100244.97;689232;28;1444;-68
2022/09/10 01:14:23;;;;;;;4.07;1.43;;;;;;;14.70;100.00;100251.00;687974;28;1267;-67
2022/09/10 01:14:56;;;;;;;3.65;1.27;;;;;;;14.72;100.00;100250.97;689156;28;1365;-68
2022/09/10 01:15:58;;;;;;;3.50;1.30;;;;;;;14.76;100.00;100256.09;687326;28;1284;-68
2022/09/10 01:16:32;;;;;;;3.10;1.20;;;;;;;14.87;100.00;100253.16;692194;28;5156;-68
2022/09/10 01:17:40;;;;;;;4.65;1.35;;;;;;;14.78;100.00;100253.41;691365;28;1350;-68
2022/09/10 01:18:02;;;;;;;3.40;1.40;;;;;;;14.69;100.00;100253.66;678167;28;1304;-68
2022/09/10 01:18:43;;;;;;;3.70;1.27;;;;;;;14.66;100.00;100249.34;678748;29;1333;-68
2022/09/10 01:19:04;;;;;;;4.95;1.33;;;;;;;14.68;100.00;100246.69;679479;28;4758;-69
2022/09/10 01:20:03;;;;;;;3.95;1.65;;;;;;;14.69;100.00;100251.03;692675;28;1047;-68
2022/09/10 01:21:11;;;;;;;5.65;1.45;;;;;;;14.69;100.00;100245.78;695923;28;1205;-68
2022/09/10 01:21:43;;;;;;;3.30;1.48;;;;;;;14.67;100.00;100247.59;682617;28;1573;-68
2022/09/10 01:22:06;;;;;;;4.70;1.40;;;;;;;14.68;100.00;100246.69;679368;28;6049;-68
2022/09/10 01:22:31;;;;;;;5.95;1.50;;;;;;;14.67;100.00;100251.09;679826;28;1220;-68
2022/09/10 01:23:22;;;;;;;4.57;1.33;;;;;;;14.71;100.00;100251.88;679727;28;1268;-68
2022/09/10 01:23:52;;;;;;;3.85;1.58;;;;;;;14.80;100.00;100243.69;689209;28;1587;-68
2022/09/10 01:25:01;;;;;;;4.32;1.50;;;;;;;14.80;100.00;100246.31;686367;28;1578;-68
2022/09/10 01:25:42;;;;;;;3.70;1.40;;;;;;;14.77;100.00;100242.03;686825;28;4880;-68
2022/09/10 01:26:18;;;;;;;5.18;1.50;;;;;;;14.75;100.00;100248.25;682859;28;1881;-68
2022/09/10 01:27:06;;;;;;;4.55;1.50;;;;;;;14.73;100.00;100252.66;685114;28;1642;-68
2022/09/10 01:27:49;;;;;;;4.22;1.60;;;;;;;14.75;100.00;100248.25;684237;28;1117;-68
2022/09/10 01:28:18;;;;;;;3.40;1.58;;;;;;;14.81;100.00;100243.69;691507;28;6729;-68
2022/09/10 01:28:55;;;;;;;4.78;1.65;;;;;;;14.85;100.00;100244.44;691234;28;1069;-68
2022/09/10 01:29:46;;;;;;;5.57;1.70;;;;;;;14.89;100.00;100246.06;691926;28;1032;-68
2022/09/10 01:30:13;;;;;;;4.13;1.67;;;;;;;14.87;100.00;100245.25;696308;28;1214;-68
2022/09/10 01:30:41;;;;;;;5.13;1.75;;;;;;;14.85;100.00;100246.22;695232;28;1313;-68
2022/09/10 01:31:11;;;;;;;5.40;1.90;;;;;;;14.81;100.00;100248.06;692825;28;4966;-68
2022/09/10 01:32:00;;;;;;;4.07;1.80;;;;;;;14.89;100.00;100245.22;690525;28;1251;-68
2022/09/10 01:32:34;;;;;;;4.07;1.80;;;;;;;14.86;100.00;100246.16;691587;28;1100;-67
2022/09/10 01:32:57;;;;;;;5.00;1.80;;;;;;;14.85;100.00;100248.84;697480;28;1561;-68
2022/09/10 01:33:33;;;;;;;3.92;1.70;;;;;;;14.80;100.00;100248.94;692330;28;1380;-68
2022/09/10 01:34:15;;;;;;;4.28;1.88;;;;;;;14.83;100.00;100243.63;691521;28;4454;-67
2022/09/10 01:34:46;;;;;;;4.93;2.00;;;;;;;14.82;100.00;100244.53;696401;28;1480;-68
2022/09/10 01:35:21;;;;;;;4.95;2.00;;;;;;;14.77;100.00;100243.78;689999;28;1224;-68
2022/09/10 01:35:55;;;;;;;4.68;2.10;;;;;;;14.86;100.00;100248.78;688967;28;1326;-68
2022/09/10 01:36:20;;;;;;;4.53;1.90;;;;;;;15.08;100.00;100248.16;688389;28;963;-68
2022/09/10 01:36:45;;;;;;;5.03;1.70;;;;;;;15.17;100.00;100245.22;692182;28;4516;-68
2022/09/10 01:37:13;;;;;;;5.03;1.77;;;;;;;15.11;100.00;100245.44;691289;28;1628;-69
2022/09/10 01:37:37;;;;;;;4.95;1.98;;;;;;;15.05;100.00;100245.59;693285;28;1472;-68
2022/09/10 01:38:05;;;;;;;4.20;1.70;;;;;;;14.97;100.00;100249.34;688878;28;1315;-68
2022/09/10 01:38:30;;;;;;;4.57;1.73;;;;;;;14.93;100.00;100247.69;688220;28;1135;-68
2022/09/10 01:38:51;;;;;;;3.72;1.90;;;;;;;14.91;100.00;100249.53;689737;28;5263;-68
2022/09/10 01:39:15;;;;;;;3.92;1.88;;;;;;;14.97;100.00;100251.97;692561;28;1586;-68
2022/09/10 01:39:37;;;;;;;4.03;1.70;;;;;;;14.91;100.00;100251.28;692048;28;1446;-69
2022/09/10 01:39:58;;;;;;;4.50;1.98;;;;;;;14.85;100.00;100248.84;692013;28;4692;-68
2022/09/10 01:40:28;;;;;;;3.78;1.85;;;;;;;14.78;100.00;100251.63;691373;28;1273;-68
2022/09/10 01:40:52;;;;;;;3.58;1.77;;;;;;;14.77;100.00;100243.78;692600;28;1396;-68
2022/09/10 01:41:15;;;;;;;4.90;1.90;;;;;;;14.76;100.00;100249.94;690443;28;1498;-68
2022/09/10 01:41:36;;;;;;;4.78;1.88;;;;;;;14.74;100.00;100249.13;690932;28;1206;-69
2022/09/10 01:41:57;;;;;;;3.55;1.80;;;;;;;14.75;100.00;100249.09;690995;28;1214;-69
2022/09/10 01:42:28;;;;;;;3.78;1.80;;;;;;;14.75;100.00;100249.09;686188;28;1100;-68
2022/09/10 01:42:49;;;;;;;4.65;1.80;;;;;;;14.74;100.00;100251.78;688124;28;4465;-68
2022/09/10 01:43:11;;;;;;;4.63;1.90;;;;;;;14.75;100.00;100251.72;688509;28;1247;-68
2022/09/10 01:43:37;;;;;;;3.75;1.80;;;;;;;14.89;100.00;100253.97;687394;28;1058;-69
2022/09/10 01:44:07;;;;;;;3.80;1.70;;;;;;;14.90;100.00;100253.06;687430;28;1187;-67
2022/09/10 01:45:00;;;;;;;3.85;1.80;;;;;;;14.91;100.00;100252.16;685931;28;1278;-68
2022/09/10 01:45:23;;;;;;;4.35;1.60;;;;;;;14.89;100.00;100253.09;680738;28;1492;-68
2022/09/10 01:45:54;;;;;;;5.50;1.80;;;;;;;14.87;100.00;100253.16;681765;28;4876;-68
2022/09/10 01:46:45;;;;;;;4.60;1.80;;;;;;;14.94;100.00;100249.44;685627;28;1153;-68
2022/09/10 01:47:16;;;;;;;5.50;1.60;;;;;;;14.94;100.00;100257.31;689982;28;1435;-67
2022/09/10 01:48:14;;;;;;;4.47;1.60;;;;;;;15.05;100.00;100261.41;688460;28;1502;-70
2022/09/10 01:48:38;;;;;;;2.95;1.40;;;;;;;15.15;100.00;100252.34;690755;28;4473;-67
2022/09/10 01:49:31;;;;;;;3.60;1.40;;;;;;;15.19;100.00;100253.97;696439;28;2109;-66
2022/09/10 01:50:10;;;;;;;3.97;1.40;;;;;;;15.18;100.00;100254.88;690432;28;1337;-67
2022/09/10 01:50:48;;;;;;;3.25;1.40;;;;;;;15.01;100.00;100254.50;689354;28;1530;-68
2022/09/10 01:51:28;;;;;;;3.60;1.40;;;;;;;14.90;100.00;100246.94;684673;28;1504;-69
2022/09/10 01:52:07;;;;;;;3.30;1.40;;;;;;;15.00;100.00;100255.44;684806;28;4325;-67
2022/09/10 01:52:56;;;;;;;4.90;1.40;;;;;;;14.96;100.00;100247.59;691066;28;1401;-68
2022/09/10 01:53:29;;;;;;;3.92;1.30;;;;;;;14.86;100.00;100245.31;696081;28;1204;-67
2022/09/10 01:54:07;;;;;;;3.25;1.50;;;;;;;14.88;100.00;100244.31;698876;28;1402;-67
2022/09/10 01:55:01;;;;;;;2.78;1.27;;;;;;;14.88;100.00;100254.00;696653;28;1395;-67
2022/09/10 01:55:50;;;;;;;4.00;1.30;;;;;;;14.83;100.00;100251.53;694716;28;4689;-67
2022/09/10 01:56:13;;;;;;;3.22;1.40;;;;;;;14.80;100.00;100244.56;696053;28;2166;-68
2022/09/10 01:57:05;;;;;;;2.13;1.20;;;;;;;14.68;100.00;100252.81;694309;28;1279;-68
2022/09/10 01:57:47;;;;;;;3.13;1.60;;;;;;;14.74;100.00;100246.50;694676;28;1035;-67
2022/09/10 01:58:29;;;;;;;3.67;1.40;;;;;;;14.82;100.00;100242.75;695092;28;4936;-67
2022/09/10 01:59:36;;;;;;;3.97;1.40;;;;;;;14.71;100.00;100251.88;684324;28;1350;-67
2022/09/10 02:00:10;;;;;;;3.50;1.40;;;;;;;14.67;100.00;100243.19;694084;28;1426;-67
2022/09/10 02:00:40;;;;;;;5.45;1.75;;;;;;;14.61;100.00;100246.81;696449;28;1177;-67
2022/09/10 02:01:10;;;;;;;3.70;1.58;;;;;;;14.57;100.00;100245.19;695843;28;4794;-67
2022/09/10 02:01:42;;;;;;;3.50;1.50;;;;;;;14.64;100.00;100238.03;696297;28;1285;-67
2022/09/10 02:02:21;;;;;;;3.85;1.70;;;;;;;14.69;100.00;100249.28;695326;28;1231;-67
2022/09/10 02:03:00;;;;;;;4.43;1.60;;;;;;;14.74;100.00;100246.50;695313;28;1230;-66
2022/09/10 02:03:25;;;;;;;4.80;1.98;;;;;;;14.64;100.00;100246.75;693772;28;1270;-67
2022/09/10 02:03:50;;;;;;;4.32;1.90;;;;;;;14.61;100.00;100240.72;694061;28;4444;-68
2022/09/10 02:04:13;;;;;;;5.05;1.60;;;;;;;14.63;100.00;100246.81;693794;28;1507;-67
2022/09/10 02:04:35;;;;;;;4.28;1.70;;;;;;;14.81;100.00;100248.06;694840;28;1381;-67
2022/09/10 02:04:58;;;;;;;4.05;1.60;;;;;;;14.84;100.00;100236.56;694775;28;1356;-67
2022/09/10 02:05:22;;;;;;;4.38;1.60;;;;;;;14.80;100.00;100248.94;691032;28;1508;-68
2022/09/10 02:05:51;;;;;;;3.42;1.50;;;;;;;14.74;100.00;100243.88;686902;28;1574;-68